createdAt,value
2023-05-12T00:00:43.417Z,3.70
2023-05-12T00:03:09.969Z,3.50
2023-05-12T00:05:36.459Z,3.70
2023-05-12T00:08:02.961Z,3.80
2023-05-12T00:10:29.722Z,4.20
2023-05-12T00:12:56.444Z,3.50
2023-05-12T00:15:23.192Z,3.30
2023-05-12T00:17:49.730Z,3.80
2023-05-12T00:20:16.238Z,3.80
2023-05-12T00:22:42.692Z,3.60
2023-05-12T00:25:09.549Z,4.00
2023-05-12T00:27:36.048Z,3.70
2023-05-12T00:30:02.537Z,4.10
2023-05-12T00:32:29.597Z,3.40
2023-05-12T00:34:56.117Z,3.80
2023-05-12T00:37:22.648Z,3.60
2023-05-12T00:39:49.145Z,3.70
2023-05-12T00:42:15.592Z,3.30
2023-05-12T00:44:42.151Z,3.90
2023-05-12T00:47:09.384Z,3.90
2023-05-12T00:49:36.523Z,3.70
2023-05-12T00:52:03.188Z,3.70
2023-05-12T00:54:30.468Z,3.40
2023-05-12T00:56:57.584Z,3.70
2023-05-12T00:59:24.038Z,3.40
2023-05-12T01:01:50.574Z,3.40
2023-05-12T01:04:17.222Z,3.30
2023-05-12T01:07:05.627Z,3.40
2023-05-12T01:09:32.045Z,3.70
2023-05-12T01:11:58.569Z,3.40
2023-05-12T01:14:25.086Z,3.10
2023-05-12T01:16:53.405Z,3.50
2023-05-12T01:19:38.436Z,3.50
2023-05-12T01:22:05.382Z,3.50
2023-05-12T01:24:34.307Z,3.20
2023-05-12T01:27:01.806Z,3.50
2023-05-12T01:29:28.774Z,3.30
2023-05-12T01:31:55.368Z,3.40
2023-05-12T01:34:21.894Z,3.70
2023-05-12T01:36:48.452Z,3.50
2023-05-12T01:39:14.964Z,3.10
2023-05-12T01:41:41.491Z,3.10
2023-05-12T01:44:08.232Z,3.40
2023-05-12T01:46:34.745Z,3.40
2023-05-12T01:49:01.245Z,3.30
2023-05-12T01:51:27.717Z,3.50
2023-05-12T01:53:54.230Z,3.50
2023-05-12T01:56:20.741Z,3.40
2023-05-12T01:58:47.347Z,3.50
2023-05-12T02:01:13.901Z,3.50
2023-05-12T02:03:40.581Z,3.40
2023-05-12T02:06:07.117Z,3.50
2023-05-12T02:08:33.557Z,3.50
2023-05-12T02:11:07.419Z,3.40
2023-05-12T02:13:34.194Z,3.40
2023-05-12T02:16:01.339Z,3.10
2023-05-12T02:18:27.998Z,3.50
2023-05-12T02:20:54.517Z,3.50
2023-05-12T02:23:21.092Z,3.40
2023-05-12T02:25:47.583Z,3.30
2023-05-12T02:28:14.047Z,3.10
2023-05-12T02:30:45.480Z,3.30
2023-05-12T02:33:12.369Z,3.30
2023-05-12T02:35:38.853Z,3.50
2023-05-12T02:38:05.358Z,3.40
2023-05-12T02:40:31.894Z,3.00
2023-05-12T02:42:58.362Z,3.60
2023-05-12T02:45:24.848Z,3.40
2023-05-12T02:47:51.366Z,3.60
2023-05-12T02:50:18.056Z,3.80
2023-05-12T02:52:44.633Z,2.90
2023-05-12T02:55:11.083Z,3.60
2023-05-12T02:57:37.724Z,3.70
2023-05-12T03:00:05.026Z,3.30
2023-05-12T03:02:35.883Z,3.30
2023-05-12T03:05:03.477Z,3.10
2023-05-12T03:07:30.032Z,3.40
2023-05-12T03:09:57.427Z,3.40
2023-05-12T03:12:23.926Z,3.20
2023-05-12T03:14:50.731Z,3.30
2023-05-12T03:17:17.424Z,3.30
2023-05-12T03:19:43.938Z,3.60
2023-05-12T03:22:10.404Z,3.20
2023-05-12T03:24:36.983Z,3.40
2023-05-12T03:27:03.626Z,3.50
2023-05-12T03:29:30.066Z,2.90
2023-05-12T03:31:56.526Z,3.40
2023-05-12T03:34:23.048Z,3.10
2023-05-12T03:36:49.564Z,3.30
2023-05-12T03:39:16.020Z,3.40
2023-05-12T03:41:42.506Z,3.10
2023-05-12T03:44:09.008Z,3.20
2023-05-12T03:46:35.617Z,3.10
2023-05-12T03:49:02.114Z,3.20
2023-05-12T03:51:28.625Z,3.60
2023-05-12T03:53:55.114Z,3.40
2023-05-12T03:56:21.569Z,3.30
2023-05-12T03:58:48.115Z,3.80
2023-05-12T04:01:14.672Z,3.20
2023-05-12T04:03:41.235Z,3.00
2023-05-12T04:06:08.132Z,3.20
2023-05-12T04:08:34.668Z,3.20
2023-05-12T04:11:01.923Z,3.10
2023-05-12T04:13:29.652Z,3.00
2023-05-12T04:15:57.605Z,3.30
2023-05-12T04:18:26.796Z,3.60
2023-05-12T04:20:54.209Z,3.60
2023-05-12T04:23:20.987Z,3.30
2023-05-12T04:25:47.687Z,3.80
2023-05-12T04:28:14.186Z,3.40
2023-05-12T04:30:41.450Z,2.90
2023-05-12T04:33:09.104Z,3.50
2023-05-12T04:35:36.027Z,3.30
2023-05-12T04:38:02.626Z,3.20
2023-05-12T04:40:29.740Z,3.10
2023-05-12T04:42:56.304Z,3.40
2023-05-12T04:45:23.073Z,3.50
2023-05-12T04:47:49.826Z,3.30
2023-05-12T04:50:16.313Z,3.10
2023-05-12T04:52:42.792Z,3.40
2023-05-12T04:55:09.690Z,3.20
2023-05-12T04:57:36.148Z,3.20
2023-05-12T05:00:03.339Z,3.10
2023-05-12T05:02:30.028Z,3.00
2023-05-12T05:04:56.588Z,3.10
2023-05-12T05:07:23.021Z,3.10
2023-05-12T05:09:49.529Z,3.20
2023-05-12T05:12:16.091Z,3.10
2023-05-12T05:14:42.588Z,2.90
2023-05-12T05:17:09.094Z,3.30
2023-05-12T05:19:50.755Z,3.60
2023-05-12T05:22:22.120Z,3.60
2023-05-12T05:24:48.562Z,3.80
2023-05-12T05:27:15.033Z,3.20
2023-05-12T05:29:41.555Z,4.00
2023-05-12T05:32:08.089Z,3.50
2023-05-12T05:34:34.714Z,3.70
2023-05-12T05:37:01.269Z,3.90
2023-05-12T05:39:27.775Z,3.90
2023-05-12T05:41:54.514Z,3.70
2023-05-12T05:44:20.999Z,3.90
2023-05-12T05:46:47.541Z,3.90
2023-05-12T05:49:14.119Z,3.70
2023-05-12T05:51:41.774Z,3.40
2023-05-12T05:54:08.341Z,3.90
2023-05-12T05:56:34.872Z,3.90
2023-05-12T05:59:04.203Z,3.70
2023-05-12T06:01:31.610Z,5.30
2023-05-12T06:03:58.165Z,4.40
2023-05-12T06:06:24.683Z,4.50
2023-05-12T06:08:51.164Z,4.10
2023-05-12T06:11:18.030Z,4.40
2023-05-12T06:13:44.692Z,4.50
2023-05-12T06:16:11.192Z,3.90
2023-05-12T06:18:38.225Z,3.90
2023-05-12T06:21:05.665Z,3.80
2023-05-12T06:23:32.134Z,4.50
2023-05-12T06:25:59.209Z,4.20
2023-05-12T06:28:25.772Z,4.70
2023-05-12T06:30:52.237Z,4.00
2023-05-12T06:33:18.678Z,4.20
2023-05-12T06:35:45.191Z,4.10
2023-05-12T06:38:11.663Z,3.90
2023-05-12T06:40:38.267Z,4.10
2023-05-12T06:43:04.796Z,8.20
2023-05-12T06:45:31.336Z,4.10
2023-05-12T06:47:57.967Z,4.50
2023-05-12T06:50:24.487Z,4.10
2023-05-12T06:52:51.065Z,4.20
2023-05-12T06:55:17.836Z,4.30
2023-05-12T06:57:44.410Z,4.50
2023-05-12T07:00:11.409Z,4.50
2023-05-12T07:02:37.875Z,4.00
2023-05-12T07:05:08.535Z,4.70
2023-05-12T07:07:36.428Z,4.20
2023-05-12T07:10:02.905Z,4.50
2023-05-12T07:12:29.545Z,4.60
2023-05-12T07:14:56.071Z,4.80
2023-05-12T07:17:22.557Z,4.70
2023-05-12T07:19:49.130Z,4.00
2023-05-12T07:22:15.667Z,5.40
2023-05-12T07:24:42.175Z,4.20
2023-05-12T07:27:08.822Z,4.50
2023-05-12T07:29:35.330Z,3.90
2023-05-12T07:32:01.845Z,4.60
2023-05-12T07:34:28.340Z,3.90
2023-05-12T07:36:54.836Z,4.60
2023-05-12T07:39:21.316Z,4.00
2023-05-12T07:41:47.824Z,4.20
2023-05-12T07:44:14.395Z,4.30
2023-05-12T07:46:40.920Z,4.30
2023-05-12T07:49:07.454Z,3.80
2023-05-12T07:51:33.967Z,4.60
2023-05-12T07:54:00.421Z,3.70
2023-05-12T07:56:26.934Z,3.80
2023-05-12T07:58:53.345Z,3.90
2023-05-12T08:01:19.849Z,3.90
2023-05-12T08:03:46.523Z,3.90
2023-05-12T08:06:13.114Z,3.80
2023-05-12T08:08:39.577Z,3.90
2023-05-12T08:11:06.143Z,3.90
2023-05-12T08:13:32.739Z,4.20
2023-05-12T08:15:59.307Z,3.60
2023-05-12T08:18:25.870Z,3.50
2023-05-12T08:20:52.454Z,3.80
2023-05-12T08:23:18.889Z,4.20
2023-05-12T08:25:45.410Z,4.30
2023-05-12T08:28:12.072Z,4.00
2023-05-12T08:30:38.680Z,4.00
2023-05-12T08:33:05.414Z,4.00
2023-05-12T08:35:31.949Z,3.70
2023-05-12T08:37:58.688Z,3.90
2023-05-12T08:40:25.709Z,4.00
2023-05-12T08:43:10.174Z,3.80
2023-05-12T08:45:37.995Z,4.10
2023-05-12T08:48:08.737Z,4.10
2023-05-12T08:50:37.582Z,4.40
2023-05-12T08:53:04.743Z,3.90
2023-05-12T08:55:33.866Z,4.20
2023-05-12T08:58:03.079Z,4.40
2023-05-12T09:00:31.268Z,4.50
2023-05-12T09:02:59.527Z,5.10
2023-05-12T09:05:29.507Z,4.10
2023-05-12T09:07:57.718Z,4.70
2023-05-12T09:13:03.570Z,4.60
2023-05-12T09:15:38.504Z,6.30
2023-05-12T09:18:05.171Z,5.90
2023-05-12T09:20:32.348Z,4.70
2023-05-12T09:22:59.290Z,5.30
2023-05-12T09:25:25.785Z,5.20
2023-05-12T09:27:55.363Z,5.40
2023-05-12T09:30:32.227Z,5.60
2023-05-12T09:33:13.266Z,5.50
2023-05-12T09:35:45.330Z,5.70
2023-05-12T09:38:14.093Z,5.70
2023-05-12T09:40:40.634Z,5.70
2023-05-12T09:43:08.150Z,6.20
2023-05-12T09:45:35.945Z,5.70
2023-05-12T09:48:10.054Z,5.70
2023-05-12T09:50:47.309Z,6.10
2023-05-12T09:53:15.493Z,6.00
2023-05-12T09:55:45.914Z,6.20
2023-05-12T09:58:15.721Z,4.80
2023-05-12T10:01:06.017Z,5.10
2023-05-12T10:03:30.904Z,5.60
2023-05-12T10:06:02.692Z,5.60
2023-05-12T10:08:45.755Z,6.40
2023-05-12T10:11:12.647Z,6.00
2023-05-12T10:13:40.006Z,5.90
2023-05-12T10:16:07.185Z,5.00
2023-05-12T10:18:34.606Z,6.00
2023-05-12T10:21:02.370Z,6.50
2023-05-12T10:23:29.238Z,5.70
2023-05-12T10:25:55.991Z,6.40
2023-05-12T10:28:22.527Z,5.30
2023-05-12T10:30:51.306Z,6.20
2023-05-12T10:33:17.939Z,6.50
2023-05-12T10:35:47.786Z,6.30
2023-05-12T10:38:16.317Z,7.00
2023-05-12T10:40:54.425Z,7.20
2023-05-12T10:43:29.318Z,6.80
2023-05-12T10:46:22.095Z,6.70
2023-05-12T10:49:02.998Z,6.70
2023-05-12T10:51:31.876Z,8.20
2023-05-12T10:54:06.607Z,7.30
2023-05-12T10:56:39.447Z,6.90
2023-05-12T10:59:26.823Z,7.90
2023-05-12T11:04:49.257Z,8.20
2023-05-12T11:07:22.093Z,7.10
2023-05-12T11:09:58.627Z,7.20
2023-05-12T11:12:33.077Z,7.20
2023-05-12T11:15:01.976Z,7.20
2023-05-12T11:17:28.664Z,7.20
2023-05-12T11:19:55.612Z,6.60
2023-05-12T11:22:23.642Z,6.60
2023-05-12T11:24:51.456Z,6.80
2023-05-12T11:27:19.839Z,6.90
2023-05-12T11:29:57.225Z,6.50
2023-05-12T11:32:23.925Z,6.30
2023-05-12T11:34:50.445Z,6.30
2023-05-12T11:37:17.083Z,7.30
2023-05-12T11:39:43.555Z,7.10
2023-05-12T11:42:13.563Z,6.90
2023-05-12T11:44:50.057Z,6.10
2023-05-12T11:47:17.816Z,5.00
2023-05-12T11:49:49.234Z,6.10
2023-05-12T11:52:16.678Z,6.50
2023-05-12T11:54:58.020Z,6.20
2023-05-12T11:57:26.476Z,6.20
2023-05-12T12:00:00.830Z,5.60
2023-05-12T12:02:28.346Z,6.50
2023-05-12T12:04:55.348Z,6.60
2023-05-12T12:07:33.224Z,5.90
2023-05-12T12:10:11.366Z,7.30
2023-05-12T12:12:38.134Z,6.30
2023-05-12T12:15:05.231Z,6.20
2023-05-12T12:17:31.829Z,5.60
2023-05-12T12:19:58.622Z,5.60
2023-05-12T12:22:25.165Z,5.70
2023-05-12T12:24:51.664Z,5.20
2023-05-12T12:27:18.113Z,5.20
2023-05-12T12:29:44.506Z,5.50
2023-05-12T12:32:11.023Z,4.80
2023-05-12T12:34:37.549Z,5.20
2023-05-12T12:37:04.201Z,5.80
2023-05-12T12:39:30.699Z,6.30
2023-05-12T12:41:57.154Z,6.90
2023-05-12T12:44:23.627Z,5.60
2023-05-12T12:46:50.169Z,5.30
2023-05-12T12:49:16.707Z,5.70
2023-05-12T12:51:46.587Z,5.60
2023-05-12T12:54:14.362Z,5.50
2023-05-12T12:56:43.762Z,4.80
2023-05-12T12:59:13.933Z,5.00
2023-05-12T13:01:40.654Z,5.70
2023-05-12T13:04:07.143Z,5.00
2023-05-12T13:06:33.644Z,5.10
2023-05-12T13:09:00.177Z,4.60
2023-05-12T13:11:26.641Z,5.70
2023-05-12T13:13:53.138Z,5.40
2023-05-12T13:16:19.589Z,4.90
2023-05-12T13:18:46.109Z,5.00
2023-05-12T13:21:12.630Z,4.20
2023-05-12T13:23:39.119Z,5.00
2023-05-12T13:26:05.587Z,5.20
2023-05-12T13:28:32.098Z,4.90
2023-05-12T13:30:58.632Z,4.80
2023-05-12T13:33:25.195Z,5.40
2023-05-12T13:35:51.727Z,5.00
2023-05-12T13:38:18.176Z,3.80
2023-05-12T13:40:44.693Z,5.00
2023-05-12T13:43:11.278Z,4.70
2023-05-12T13:45:37.769Z,6.10
2023-05-12T13:48:04.434Z,5.30
2023-05-12T13:50:33.319Z,4.70
2023-05-12T13:53:00.120Z,4.90
2023-05-12T13:55:27.003Z,4.90
2023-05-12T13:57:53.891Z,4.70
2023-05-12T14:00:20.653Z,4.80
2023-05-12T14:02:47.236Z,4.40
2023-05-12T14:05:13.889Z,4.60
2023-05-12T14:07:40.375Z,7.10
2023-05-12T14:10:07.284Z,4.80
2023-05-12T14:12:33.742Z,5.30
2023-05-12T14:15:15.860Z,5.20
2023-05-12T14:17:46.666Z,5.10
2023-05-12T14:20:13.254Z,5.40
2023-05-12T14:22:39.689Z,5.10
2023-05-12T14:25:06.486Z,4.80
2023-05-12T14:27:32.975Z,5.30
2023-05-12T14:29:59.503Z,5.10
2023-05-12T14:32:26.078Z,4.70
2023-05-12T14:34:52.777Z,4.40
2023-05-12T14:37:19.246Z,4.90
2023-05-12T14:39:45.735Z,4.70
2023-05-12T14:42:12.202Z,4.50
2023-05-12T14:44:38.742Z,6.50
2023-05-12T14:47:07.497Z,5.00
2023-05-12T14:49:35.485Z,5.30
2023-05-12T14:52:02.594Z,4.90
2023-05-12T14:54:29.085Z,4.90
2023-05-12T14:56:55.579Z,4.90
2023-05-12T14:59:22.088Z,5.00
2023-05-12T15:01:48.619Z,4.80
2023-05-12T15:04:15.211Z,4.30
2023-05-12T15:06:41.685Z,4.50
2023-05-12T15:09:08.162Z,4.70
2023-05-12T15:11:34.681Z,4.70
2023-05-12T15:14:01.550Z,4.00
2023-05-12T15:16:28.220Z,4.80
2023-05-12T15:18:54.898Z,4.60
2023-05-12T15:21:21.519Z,4.70
2023-05-12T15:23:48.009Z,4.90
2023-05-12T15:26:31.292Z,5.30
2023-05-12T15:28:59.435Z,5.00
2023-05-12T15:31:28.655Z,4.50
2023-05-12T15:33:56.680Z,4.70
2023-05-12T15:36:23.246Z,4.20
2023-05-12T15:38:49.740Z,5.20
2023-05-12T15:41:16.281Z,5.20
2023-05-12T15:43:42.770Z,4.80
2023-05-12T15:46:09.512Z,4.90
2023-05-12T15:48:36.052Z,4.90
2023-05-12T15:51:03.468Z,5.40
2023-05-12T15:53:29.913Z,5.80
2023-05-12T15:56:04.088Z,5.00
2023-05-12T15:58:30.711Z,5.40
2023-05-12T16:00:57.321Z,5.10
2023-05-12T16:03:24.028Z,5.20
2023-05-12T16:05:50.853Z,4.50
2023-05-12T16:08:17.885Z,5.20
2023-05-12T16:10:44.811Z,4.80
2023-05-12T16:13:11.415Z,5.20
2023-05-12T16:15:37.916Z,5.30
2023-05-12T16:18:04.725Z,6.10
2023-05-12T16:20:32.145Z,5.70
2023-05-12T16:22:58.653Z,6.00
2023-05-12T16:25:25.517Z,5.40
2023-05-12T16:27:52.039Z,5.10
2023-05-12T16:30:20.170Z,5.50
2023-05-12T16:32:47.209Z,4.80
2023-05-12T16:35:13.982Z,4.90
2023-05-12T16:37:40.471Z,4.50
2023-05-12T16:40:09.671Z,5.00
2023-05-12T16:42:36.380Z,4.90
2023-05-12T16:45:02.888Z,4.90
2023-05-12T16:47:29.513Z,4.80
2023-05-12T16:49:56.051Z,5.10
2023-05-12T16:52:22.519Z,5.00
2023-05-12T16:54:49.017Z,5.10
2023-05-12T16:57:15.551Z,4.90
2023-05-12T16:59:42.000Z,5.20
2023-05-12T17:02:08.527Z,5.50
2023-05-12T17:04:35.124Z,4.70
2023-05-12T17:07:01.624Z,5.00
2023-05-12T17:09:28.074Z,5.00
2023-05-12T17:11:54.546Z,5.00
2023-05-12T17:14:21.089Z,4.50
2023-05-12T17:16:47.646Z,5.10
2023-05-12T17:19:14.890Z,5.30
2023-05-12T17:21:41.934Z,5.00
2023-05-12T17:24:08.748Z,5.10
2023-05-12T17:26:35.771Z,4.70
2023-05-12T17:29:02.535Z,5.00
2023-05-12T17:31:29.404Z,5.20
2023-05-12T17:33:55.951Z,5.10
2023-05-12T17:36:22.515Z,4.50
2023-05-12T17:38:50.632Z,4.80
2023-05-12T17:41:17.705Z,4.80
2023-05-12T17:43:44.233Z,5.20
2023-05-12T17:46:10.748Z,5.40
2023-05-12T17:48:37.256Z,5.60
2023-05-12T17:51:04.415Z,5.60
2023-05-12T17:53:32.235Z,5.40
2023-05-12T17:55:59.575Z,5.60
2023-05-12T17:58:26.292Z,5.60
2023-05-12T18:00:52.927Z,5.50
2023-05-12T18:03:19.484Z,5.50
2023-05-12T18:05:46.298Z,6.20
2023-05-12T18:08:12.744Z,5.40
2023-05-12T18:10:39.244Z,5.60
2023-05-12T18:13:05.759Z,6.30
2023-05-12T18:15:32.305Z,6.00
2023-05-12T18:17:58.774Z,5.60
2023-05-12T18:20:25.429Z,5.30
2023-05-12T18:22:51.883Z,5.90
2023-05-12T18:25:18.660Z,6.10
2023-05-12T18:27:45.246Z,6.30
2023-05-12T18:30:12.297Z,7.30
2023-05-12T18:32:39.042Z,5.20
2023-05-12T18:35:06.474Z,4.70
2023-05-12T18:37:33.011Z,4.60
2023-05-12T18:39:59.602Z,4.80
2023-05-12T18:42:26.057Z,4.70
2023-05-12T18:44:53.286Z,5.20
2023-05-12T18:47:20.152Z,5.00
2023-05-12T18:49:46.752Z,5.10
2023-05-12T18:52:13.302Z,4.80
2023-05-12T18:54:39.800Z,4.70
2023-05-12T18:57:06.297Z,4.50
2023-05-12T18:59:32.830Z,4.60
2023-05-12T19:01:59.432Z,5.00
2023-05-12T19:04:25.973Z,4.90
2023-05-12T19:06:52.417Z,4.90
2023-05-12T19:09:18.851Z,4.80
2023-05-12T19:11:45.291Z,5.20
2023-05-12T19:14:11.741Z,4.90
2023-05-12T19:16:38.384Z,5.40
2023-05-12T19:19:05.139Z,4.60
2023-05-12T19:21:31.656Z,4.90
2023-05-12T19:23:58.292Z,4.90
2023-05-12T19:26:24.821Z,4.70
2023-05-12T19:28:51.303Z,4.10
2023-05-12T19:31:17.891Z,4.70
2023-05-12T19:33:44.474Z,4.70
2023-05-12T19:36:11.149Z,4.50
2023-05-12T19:38:37.641Z,4.30
2023-05-12T19:41:04.107Z,4.30
2023-05-12T19:43:30.562Z,4.80
2023-05-12T19:45:57.125Z,4.40
2023-05-12T19:48:23.671Z,4.30
2023-05-12T19:50:50.158Z,7.40
2023-05-12T19:53:16.642Z,5.40
2023-05-12T19:55:43.148Z,5.50
2023-05-12T19:58:09.625Z,5.30
2023-05-12T20:00:38.270Z,5.60
2023-05-12T20:03:05.771Z,5.30
2023-05-12T20:05:35.066Z,5.70
2023-05-12T20:08:01.578Z,5.20
2023-05-12T20:10:28.080Z,4.80
2023-05-12T20:12:54.546Z,5.00
2023-05-12T20:15:21.400Z,5.30
2023-05-12T20:17:48.117Z,5.10
2023-05-12T20:20:14.721Z,4.90
2023-05-12T20:22:41.209Z,5.20
2023-05-12T20:25:08.062Z,5.00
2023-05-12T20:27:34.522Z,4.90
2023-05-12T20:30:00.990Z,5.20
2023-05-12T20:32:27.532Z,5.20
2023-05-12T20:34:54.069Z,5.60
2023-05-12T20:37:20.574Z,5.90
2023-05-12T20:39:47.122Z,5.20
2023-05-12T20:42:13.670Z,5.70
2023-05-12T20:44:40.140Z,5.40
2023-05-12T20:47:06.724Z,5.30
2023-05-12T20:49:33.256Z,5.50
2023-05-12T20:51:59.784Z,5.60
2023-05-12T20:54:26.316Z,5.10
2023-05-12T20:56:52.825Z,5.60
2023-05-12T20:59:19.361Z,5.20
2023-05-12T21:01:46.360Z,5.50
2023-05-12T21:04:13.686Z,5.10
2023-05-12T21:06:40.280Z,5.80
2023-05-12T21:09:06.777Z,5.90
2023-05-12T21:11:33.364Z,6.50
2023-05-12T21:13:59.966Z,6.20
2023-05-12T21:16:26.501Z,6.70
2023-05-12T21:18:53.305Z,7.50
2023-05-12T21:21:19.814Z,6.90
2023-05-12T21:23:46.386Z,6.30
2023-05-12T21:26:12.864Z,6.10
2023-05-12T21:28:39.374Z,6.00
2023-05-12T21:31:05.883Z,6.30
2023-05-12T21:33:32.550Z,5.80
2023-05-12T21:35:58.977Z,5.60
2023-05-12T21:38:25.461Z,5.80
2023-05-12T21:40:51.972Z,5.50
2023-05-12T21:43:18.537Z,5.50
2023-05-12T21:45:45.096Z,5.90
2023-05-12T21:48:11.698Z,5.90
2023-05-12T21:50:38.245Z,5.90
2023-05-12T21:53:04.766Z,5.20
2023-05-12T21:55:31.250Z,5.90
2023-05-12T21:57:57.717Z,5.30
2023-05-12T22:00:24.480Z,5.90
2023-05-12T22:02:51.275Z,5.70
2023-05-12T22:05:17.804Z,6.20
2023-05-12T22:07:44.244Z,6.30
2023-05-12T22:10:10.772Z,6.00
2023-05-12T22:12:37.248Z,6.50
2023-05-12T22:15:04.182Z,6.60
2023-05-12T22:17:30.711Z,6.20
2023-05-12T22:19:57.271Z,6.30
2023-05-12T22:22:23.922Z,6.40
2023-05-12T22:24:50.398Z,6.30
2023-05-12T22:27:16.954Z,6.70
2023-05-12T22:29:43.659Z,6.50
2023-05-12T22:32:10.189Z,7.60
2023-05-12T22:34:36.717Z,6.40
2023-05-12T22:37:03.284Z,6.10
2023-05-12T22:39:29.784Z,5.90
2023-05-12T22:41:56.298Z,6.30
2023-05-12T22:44:22.785Z,5.60
2023-05-12T22:46:49.226Z,5.90
2023-05-12T22:49:15.692Z,6.00
2023-05-12T22:51:42.192Z,5.50
2023-05-12T22:54:08.620Z,5.60
2023-05-12T22:56:35.113Z,5.70
2023-05-12T22:59:01.625Z,5.70
2023-05-12T23:01:28.113Z,5.50
2023-05-12T23:03:54.581Z,6.10
2023-05-12T23:06:21.092Z,6.00
2023-05-12T23:08:47.550Z,6.00
2023-05-12T23:11:14.024Z,5.20
2023-05-12T23:13:40.481Z,5.40
2023-05-12T23:16:07.426Z,5.80
2023-05-12T23:18:34.033Z,6.00
2023-05-12T23:21:00.564Z,5.80
2023-05-12T23:23:27.044Z,5.40
2023-05-12T23:25:53.501Z,5.90
2023-05-12T23:28:20.053Z,5.60
2023-05-12T23:30:46.522Z,6.20
2023-05-12T23:33:13.088Z,5.30
2023-05-12T23:35:39.820Z,5.50
2023-05-12T23:38:06.756Z,5.40
2023-05-12T23:40:33.317Z,5.50
2023-05-12T23:43:00.045Z,4.90
2023-05-12T23:45:26.519Z,5.70
2023-05-12T23:47:53.078Z,5.90
2023-05-12T23:50:19.774Z,5.50
2023-05-12T23:52:46.400Z,5.10
2023-05-12T23:55:12.867Z,5.90
2023-05-12T23:57:39.419Z,5.30
